createdAt,value
2019-01-05T00:02:11.574Z,60.90
2019-01-05T00:05:00.296Z,60.90
2019-01-05T00:07:47.239Z,61.00
2019-01-05T00:10:32.800Z,61.10
2019-01-05T00:13:19.190Z,61.10
2019-01-05T00:16:05.821Z,60.90
2019-01-05T00:18:46.770Z,60.80
2019-01-05T00:21:34.445Z,60.90
2019-01-05T00:24:21.386Z,61.00
2019-01-05T00:27:07.814Z,60.90
2019-01-05T00:30:02.307Z,60.90
2019-01-05T00:32:48.882Z,61.00
2019-01-05T00:35:41.969Z,61.00
2019-01-05T00:38:24.158Z,61.00
2019-01-05T00:41:09.478Z,60.90
2019-01-05T00:43:50.868Z,61.70
2019-01-05T00:46:37.550Z,60.90
2019-01-05T00:49:28.022Z,61.00
2019-01-05T00:52:08.537Z,61.10
2019-01-05T00:54:54.599Z,61.00
2019-01-05T01:21:53.650Z,61.30
2019-01-05T01:24:33.829Z,61.30
2019-01-05T01:27:30.681Z,61.20
2019-01-05T01:30:33.382Z,61.20
2019-01-05T01:33:18.841Z,61.20
2019-01-05T01:36:07.580Z,61.10
2019-01-05T01:39:07.099Z,61.20
2019-01-05T01:41:57.835Z,61.20
2019-01-05T01:45:03.751Z,61.30
2019-01-05T01:48:01.790Z,61.20
2019-01-05T01:50:49.426Z,63.00
2019-01-05T01:53:37.623Z,61.90
2019-01-05T01:56:17.989Z,61.90
2019-01-05T01:59:22.034Z,62.10
2019-01-05T02:02:20.158Z,61.90
2019-01-05T02:05:06.253Z,61.80
2019-01-05T02:08:01.655Z,62.10
2019-01-05T02:10:46.368Z,62.10
2019-01-05T02:13:42.130Z,62.10
2019-01-05T02:16:31.384Z,61.90
2019-01-05T02:19:37.890Z,62.00
2019-01-05T02:23:27.538Z,62.00
2019-01-05T02:26:47.718Z,62.10
2019-01-05T02:30:11.499Z,61.70
2019-01-05T02:33:38.237Z,61.80
2019-01-05T02:36:50.735Z,62.00
2019-01-05T02:40:07.348Z,61.90
2019-01-05T02:43:26.607Z,61.80
2019-01-05T02:46:46.031Z,62.00
2019-01-05T02:50:12.538Z,61.80
2019-01-05T02:53:34.574Z,61.80
2019-01-05T02:57:01.619Z,61.80
2019-01-05T03:00:20.989Z,61.90
2019-01-05T03:03:52.415Z,61.90
2019-01-05T03:07:10.819Z,61.90
2019-01-05T03:10:35.320Z,62.10
2019-01-05T03:13:56.638Z,61.90
2019-01-05T03:17:18.890Z,61.90
2019-01-05T03:21:04.692Z,61.80
2019-01-05T03:24:33.091Z,61.80
2019-01-05T03:28:23.483Z,61.80
2019-01-05T03:31:56.487Z,61.90
2019-01-05T03:35:10.487Z,61.80
2019-01-05T03:38:19.801Z,61.80
2019-01-05T03:41:36.115Z,61.70
2019-01-05T03:45:20.198Z,61.70
2019-01-05T03:48:32.075Z,61.80
2019-01-05T03:51:48.053Z,61.70
2019-01-05T03:55:16.220Z,61.80
2019-01-05T03:58:59.640Z,61.60
2019-01-05T04:02:31.818Z,61.70
2019-01-05T04:06:25.946Z,61.60
2019-01-05T04:09:36.659Z,61.60
2019-01-05T04:13:02.203Z,61.50
2019-01-05T04:16:25.160Z,61.50
2019-01-05T04:19:45.454Z,61.60
2019-01-05T04:23:17.171Z,61.70
2019-01-05T04:26:30.691Z,61.40
2019-01-05T04:29:50.289Z,61.60
2019-01-05T04:33:24.243Z,61.40
2019-01-05T04:36:48.926Z,61.40
2019-01-05T04:40:17.374Z,61.40
2019-01-05T04:44:09.452Z,61.60
2019-01-05T04:47:38.658Z,61.60
2019-01-05T04:51:01.989Z,61.60
2019-01-05T04:54:38.770Z,61.70
2019-01-05T04:58:10.784Z,61.60
2019-01-05T05:01:37.706Z,61.50
2019-01-05T05:05:14.696Z,61.40
2019-01-05T05:08:50.864Z,62.10
2019-01-05T05:12:17.601Z,61.60
2019-01-05T05:15:41.572Z,61.40
2019-01-05T05:19:02.478Z,61.40
2019-01-05T05:22:31.724Z,61.40
2019-01-05T05:25:58.539Z,61.40
2019-01-05T05:29:15.380Z,61.50
2019-01-05T05:32:47.867Z,61.60
2019-01-05T05:36:01.594Z,61.60
2019-01-05T05:39:13.071Z,61.40
2019-01-05T05:42:25.007Z,61.50
2019-01-05T05:45:38.068Z,61.40
2019-01-05T05:49:00.811Z,61.60
2019-01-05T05:52:15.488Z,61.60
2019-01-05T05:55:54.148Z,61.50
2019-01-05T05:59:06.290Z,61.40
2019-01-05T06:02:26.094Z,61.60
2019-01-05T06:06:05.391Z,61.40
2019-01-05T06:09:29.329Z,61.30
2019-01-05T06:12:52.269Z,61.40
2019-01-05T06:15:49.760Z,61.40
2019-01-05T06:19:26.706Z,61.30
2019-01-05T06:22:48.366Z,61.40
2019-01-05T06:26:15.157Z,61.50
2019-01-05T06:29:54.677Z,61.40
2019-01-05T06:33:27.279Z,61.60
2019-01-05T06:36:31.936Z,61.60
2019-01-05T06:40:03.899Z,61.40
2019-01-05T06:43:31.187Z,61.20
2019-01-05T06:46:49.008Z,61.40
2019-01-05T06:49:52.942Z,61.50
2019-01-05T06:53:00.103Z,61.50
2019-01-05T06:56:41.738Z,61.40
2019-01-05T07:00:21.178Z,61.40
2019-01-05T07:03:35.863Z,61.40
2019-01-05T07:06:54.443Z,61.30
2019-01-05T07:10:36.810Z,61.50
2019-01-05T07:13:43.426Z,61.70
2019-01-05T07:17:04.329Z,61.50
2019-01-05T07:20:18.427Z,61.40
2019-01-05T07:23:37.215Z,61.50
2019-01-05T07:27:14.006Z,61.60
2019-01-05T07:30:30.354Z,61.40
2019-01-05T07:33:52.942Z,61.50
2019-01-05T07:37:10.354Z,61.50
2019-01-05T07:40:22.490Z,61.60
2019-01-05T07:43:49.038Z,61.50
2019-01-05T07:47:19.096Z,61.40
2019-01-05T07:50:43.341Z,61.50
2019-01-05T07:54:14.190Z,61.60
2019-01-05T07:57:39.490Z,61.50
2019-01-05T08:01:19.436Z,61.50
2019-01-05T08:04:30.982Z,61.20
2019-01-05T08:07:54.891Z,61.40
2019-01-05T08:11:49.175Z,61.40
2019-01-05T08:15:17.946Z,61.30
2019-01-05T08:18:39.176Z,61.60
2019-01-05T08:22:15.259Z,61.50
2019-01-05T08:25:40.919Z,61.50
2019-01-05T08:29:04.720Z,61.40
2019-01-05T08:32:41.075Z,61.40
2019-01-05T08:36:08.114Z,61.40
2019-01-05T08:39:40.835Z,61.30
2019-01-05T08:43:06.802Z,61.30
2019-01-05T08:46:26.466Z,61.40
2019-01-05T08:50:02.336Z,61.40
2019-01-05T08:53:35.154Z,61.50
2019-01-05T08:57:05.901Z,61.20
2019-01-05T09:00:29.062Z,61.00
2019-01-05T09:04:01.019Z,61.20
2019-01-05T09:07:21.019Z,61.30
2019-01-05T09:11:02.832Z,61.30
2019-01-05T09:14:35.443Z,61.30
2019-01-05T09:18:07.262Z,61.20
2019-01-05T09:21:40.039Z,61.30
2019-01-05T09:25:09.507Z,61.30
2019-01-05T09:28:44.544Z,61.40
2019-01-05T09:32:10.959Z,61.30
2019-01-05T09:35:39.674Z,61.30
2019-01-05T09:39:01.131Z,61.20
2019-01-05T09:42:35.788Z,61.20
2019-01-05T09:46:26.111Z,61.30
2019-01-05T09:49:56.267Z,61.30
2019-01-05T09:53:12.868Z,61.00
2019-01-05T09:56:35.653Z,61.10
2019-01-05T09:59:48.144Z,61.00
2019-01-05T10:03:21.004Z,61.10
2019-01-05T10:06:44.571Z,61.10
2019-01-05T10:10:24.415Z,61.10
2019-01-05T10:13:48.507Z,61.20
2019-01-05T10:17:00.495Z,60.90
2019-01-05T10:20:42.447Z,61.10
2019-01-05T10:24:14.983Z,61.10
2019-01-05T10:27:23.255Z,60.90
2019-01-05T10:30:41.502Z,61.50
2019-01-05T10:34:46.505Z,60.90
2019-01-05T10:38:04.260Z,60.90
2019-01-05T10:41:26.275Z,61.10
2019-01-05T10:44:34.526Z,61.00
2019-01-05T10:47:56.870Z,60.90
2019-01-05T10:51:39.246Z,60.80
2019-01-05T10:54:57.766Z,61.10
2019-01-05T10:58:14.855Z,61.00
2019-01-05T11:01:29.035Z,61.10
2019-01-05T11:04:48.055Z,61.00
2019-01-05T11:08:20.663Z,61.00
2019-01-05T11:11:38.431Z,60.90
2019-01-05T11:14:47.750Z,60.80
2019-01-05T11:18:27.838Z,60.70
2019-01-05T11:21:43.868Z,60.80
2019-01-05T11:25:01.530Z,60.60
2019-01-05T11:28:10.144Z,60.50
2019-01-05T11:31:45.279Z,60.40
2019-01-05T11:35:12.716Z,60.30
2019-01-05T11:39:02.953Z,60.70
2019-01-05T11:42:28.047Z,60.70
2019-01-05T11:46:12.142Z,60.80
2019-01-05T11:49:33.150Z,60.70
2019-01-05T11:52:57.771Z,60.60
2019-01-05T11:56:51.546Z,60.80
2019-01-05T12:00:13.803Z,60.80
2019-01-05T12:03:42.516Z,61.10
2019-01-05T12:07:16.355Z,60.90
2019-01-05T12:10:35.759Z,60.80
2019-01-05T12:13:55.719Z,60.80
2019-01-05T12:17:24.881Z,60.80
2019-01-05T12:20:35.368Z,60.90
2019-01-05T12:24:12.831Z,60.80
2019-01-05T12:27:24.234Z,61.00
2019-01-05T12:30:47.434Z,61.00
2019-01-05T12:34:01.633Z,60.90
2019-01-05T12:37:20.851Z,60.90
2019-01-05T12:40:30.799Z,60.90
2019-01-05T12:43:54.404Z,61.10
2019-01-05T12:47:37.366Z,60.90
2019-01-05T12:51:14.494Z,60.90
2019-01-05T12:54:52.356Z,61.00
2019-01-05T12:58:38.192Z,61.10
2019-01-05T13:01:48.176Z,61.10
2019-01-05T13:05:46.687Z,61.10
2019-01-05T13:09:08.768Z,61.20
2019-01-05T13:12:42.110Z,61.20
2019-01-05T13:16:11.804Z,61.20
2019-01-05T13:19:16.362Z,61.30
2019-01-05T13:22:26.809Z,61.20
2019-01-05T13:25:57.761Z,61.30
2019-01-05T13:29:36.390Z,61.20
2019-01-05T13:33:16.314Z,61.30
2019-01-05T13:36:31.591Z,61.40
2019-01-05T13:39:56.919Z,61.60
2019-01-05T13:43:31.206Z,61.60
2019-01-05T13:47:20.991Z,61.90
2019-01-05T13:50:31.113Z,61.90
2019-01-05T13:53:44.878Z,62.00
2019-01-05T13:56:41.915Z,61.80
2019-01-05T13:59:28.354Z,61.80
2019-01-05T14:02:26.706Z,62.00
2019-01-05T14:05:23.335Z,61.90
2019-01-05T14:08:11.752Z,62.10
2019-01-05T14:10:58.275Z,61.90
2019-01-05T14:13:54.606Z,62.00
2019-01-05T14:16:39.615Z,62.20
2019-01-05T14:19:25.971Z,62.30
2019-01-05T14:22:22.672Z,62.40
2019-01-05T14:25:16.866Z,62.50
2019-01-05T14:28:07.311Z,62.70
2019-01-05T14:30:47.526Z,62.70
2019-01-05T14:33:31.686Z,62.80
2019-01-05T14:36:14.598Z,62.90
2019-01-05T14:38:56.923Z,62.80
2019-01-05T14:41:43.298Z,63.00
2019-01-05T14:44:34.128Z,62.90
2019-01-05T14:47:27.977Z,63.00
2019-01-05T14:50:32.531Z,63.20
2019-01-05T14:53:35.230Z,63.20
2019-01-05T14:56:21.510Z,63.20
2019-01-05T14:59:07.864Z,63.10
2019-01-05T15:01:54.426Z,63.10
2019-01-05T15:04:40.546Z,63.10
2019-01-05T15:07:28.052Z,63.10
2019-01-05T15:10:18.899Z,63.20
2019-01-05T15:13:06.587Z,63.40
2019-01-05T15:15:49.699Z,63.30
2019-01-05T15:18:48.419Z,63.30
2019-01-05T15:21:31.186Z,63.20
2019-01-05T15:24:31.128Z,63.40
2019-01-05T15:27:35.167Z,63.40
2019-01-05T15:30:25.729Z,63.40
2019-01-05T15:33:05.886Z,63.40
2019-01-05T15:35:50.783Z,63.60
2019-01-05T15:38:50.766Z,63.60
2019-01-05T15:41:34.250Z,63.60
2019-01-05T15:44:15.987Z,63.70
2019-01-05T15:47:07.520Z,63.70
2019-01-05T15:49:54.094Z,63.60
2019-01-05T15:52:40.575Z,63.70
2019-01-05T15:55:26.917Z,63.60
2019-01-05T15:58:17.743Z,63.70
2019-01-05T16:00:59.559Z,63.70
2019-01-05T16:04:05.766Z,63.80
2019-01-05T16:06:52.059Z,63.50
2019-01-05T16:09:38.283Z,63.70
2019-01-05T16:12:24.344Z,63.70
2019-01-05T16:15:15.198Z,63.60
2019-01-05T16:18:17.450Z,63.80
2019-01-05T16:21:11.684Z,63.80
2019-01-05T16:23:57.604Z,63.80
2019-01-05T16:26:48.102Z,63.70
2019-01-05T16:29:34.547Z,63.80
2019-01-05T16:32:21.254Z,63.90
2019-01-05T16:35:03.995Z,63.90
2019-01-05T16:37:57.126Z,63.90
2019-01-05T16:40:50.126Z,63.80
2019-01-05T16:43:30.776Z,64.00
2019-01-05T16:46:21.475Z,63.90
2019-01-05T16:49:12.194Z,63.80
2019-01-05T16:51:58.810Z,64.00
2019-01-05T16:54:47.102Z,64.00
2019-01-05T16:57:41.896Z,63.80
2019-01-05T17:00:28.319Z,63.80
2019-01-05T17:03:17.270Z,63.90
2019-01-05T17:06:03.861Z,63.90
2019-01-05T17:08:52.951Z,63.70
2019-01-05T17:11:46.524Z,63.90
2019-01-05T17:14:32.943Z,63.90
2019-01-05T17:17:18.373Z,63.80
2019-01-05T17:20:05.056Z,63.70
2019-01-05T17:22:46.985Z,63.90
2019-01-05T17:25:43.510Z,65.00
2019-01-05T17:28:31.106Z,64.40
2019-01-05T17:31:27.465Z,63.10
2019-01-05T17:34:30.462Z,62.60
2019-01-05T17:37:27.560Z,62.20
2019-01-05T17:40:30.234Z,61.20
2019-01-05T17:43:26.831Z,61.70
2019-01-05T17:46:13.123Z,62.60
2019-01-05T17:49:15.729Z,62.00
2019-01-05T17:52:08.817Z,62.70
2019-01-05T17:55:02.070Z,62.20
2019-01-05T17:57:48.927Z,62.40
2019-01-05T18:00:39.814Z,61.70
2019-01-05T18:03:25.470Z,61.70
2019-01-05T18:06:15.508Z,61.20
2019-01-05T18:08:57.276Z,62.20
2019-01-05T18:11:50.848Z,61.60
2019-01-05T18:14:41.567Z,62.00
2019-01-05T18:17:35.726Z,62.10
2019-01-05T18:20:23.611Z,61.80
2019-01-05T18:23:11.310Z,61.20
2019-01-05T18:25:52.488Z,61.30
2019-01-05T18:28:32.037Z,61.20
2019-01-05T18:31:27.235Z,61.00
2019-01-05T18:34:18.495Z,61.10
2019-01-05T18:37:19.264Z,60.90
2019-01-05T18:40:03.526Z,61.20
2019-01-05T18:42:45.839Z,61.20
2019-01-05T18:45:32.050Z,60.70
2019-01-05T18:48:20.743Z,61.10
2019-01-05T18:51:07.220Z,61.00
2019-01-05T18:53:54.116Z,61.20
2019-01-05T18:56:40.334Z,61.40
2019-01-05T18:59:25.701Z,61.90
2019-01-05T19:02:12.285Z,61.80
2019-01-05T19:04:58.495Z,61.80
2019-01-05T19:07:44.939Z,61.30
2019-01-05T19:10:31.400Z,60.90
2019-01-05T19:13:28.783Z,61.40
2019-01-05T19:16:31.729Z,61.00
2019-01-05T19:19:18.306Z,62.10
2019-01-05T19:22:04.816Z,61.60
2019-01-05T19:24:59.557Z,61.30
2019-01-05T19:27:50.336Z,61.40
2019-01-05T19:30:36.506Z,61.30
2019-01-05T19:33:22.966Z,61.10
2019-01-05T19:36:08.544Z,61.10
2019-01-05T19:38:54.736Z,61.90
2019-01-05T19:41:42.534Z,61.70
2019-01-05T19:44:28.972Z,61.50
2019-01-05T19:47:15.181Z,61.20
2019-01-05T19:50:01.578Z,61.80
2019-01-05T19:52:48.095Z,61.90
2019-01-05T19:55:34.479Z,61.60
2019-01-05T19:58:22.176Z,61.30
2019-01-05T20:01:28.246Z,61.60
2019-01-05T20:04:24.851Z,61.10
2019-01-05T20:07:12.719Z,61.70
2019-01-05T20:09:53.179Z,62.10
2019-01-05T20:12:39.554Z,60.90
2019-01-05T20:15:36.527Z,60.80
2019-01-05T20:18:39.346Z,61.30
2019-01-05T20:21:25.972Z,61.40
2019-01-05T20:24:12.364Z,61.20
2019-01-05T20:26:58.756Z,61.30
2019-01-05T20:29:41.159Z,61.60
2019-01-05T20:32:27.546Z,61.20
2019-01-05T20:35:19.911Z,61.30
2019-01-05T20:38:06.425Z,61.70
2019-01-05T20:40:55.011Z,61.90
2019-01-05T20:43:44.098Z,62.20
2019-01-05T20:46:37.738Z,62.90
2019-01-05T20:49:23.819Z,63.80
2019-01-05T20:52:13.689Z,63.90
2019-01-05T20:55:15.091Z,63.10
2019-01-05T20:58:08.599Z,62.60
2019-01-05T21:00:54.654Z,62.10
2019-01-05T21:03:41.079Z,62.30
2019-01-05T21:06:38.146Z,62.20
2019-01-05T21:09:21.455Z,62.40
2019-01-05T21:12:07.849Z,61.90
2019-01-05T21:15:13.997Z,61.60
2019-01-05T21:18:06.754Z,62.40
2019-01-05T21:20:51.562Z,62.10
2019-01-05T21:23:37.959Z,61.70
2019-01-05T21:26:24.658Z,61.60
2019-01-05T21:29:23.715Z,61.40
2019-01-05T21:32:10.099Z,61.50
2019-01-05T21:34:56.170Z,61.30
2019-01-05T21:37:42.584Z,61.60
2019-01-05T21:40:33.134Z,61.40
2019-01-05T21:43:19.262Z,61.20
2019-01-05T21:46:05.730Z,60.90
2019-01-05T21:48:52.345Z,60.80
2019-01-05T21:51:45.783Z,60.90
2019-01-05T21:54:27.423Z,61.10
2019-01-05T21:57:08.849Z,61.60
2019-01-05T21:59:55.202Z,61.70
2019-01-05T22:02:40.431Z,61.40
2019-01-05T22:05:26.494Z,61.70
2019-01-05T22:08:23.412Z,62.90
2019-01-05T22:11:23.291Z,61.70
2019-01-05T22:14:09.446Z,62.20
2019-01-05T22:16:55.630Z,62.40
2019-01-05T22:19:42.151Z,62.30
2019-01-05T22:22:17.720Z,62.40
2019-01-05T22:25:14.166Z,62.00
2019-01-05T22:28:04.835Z,61.70
2019-01-05T22:31:00.215Z,62.00
2019-01-05T22:33:50.174Z,62.00
2019-01-05T22:36:30.769Z,61.50
2019-01-05T22:39:18.651Z,62.00
2019-01-05T22:42:03.879Z,62.20
2019-01-05T22:44:45.327Z,62.10
2019-01-05T22:47:33.054Z,62.50
2019-01-05T22:50:19.695Z,62.10
2019-01-05T22:53:22.304Z,62.00
2019-01-05T22:56:12.459Z,62.20
2019-01-05T22:59:03.328Z,62.30
2019-01-05T23:01:49.431Z,62.10
2019-01-05T23:04:31.198Z,61.60
2019-01-05T23:07:27.563Z,62.90
2019-01-05T23:10:13.674Z,63.00
2019-01-05T23:13:00.020Z,62.80
2019-01-05T23:15:58.340Z,62.90
2019-01-05T23:18:45.999Z,62.70
2019-01-05T23:21:32.061Z,62.10
2019-01-05T23:24:25.540Z,62.30
2019-01-05T23:27:21.715Z,61.90
2019-01-05T23:30:18.706Z,61.90
2019-01-05T23:33:12.530Z,62.40
2019-01-05T23:35:57.179Z,62.30
2019-01-05T23:38:49.985Z,62.10
2019-01-05T23:41:34.090Z,62.60
2019-01-05T23:44:20.346Z,62.20
2019-01-05T23:47:11.091Z,61.90
2019-01-05T23:49:58.824Z,61.60
2019-01-05T23:52:55.328Z,61.40
2019-01-05T23:55:48.879Z,61.10
2019-01-05T23:58:42.717Z,61.30
